createdAt,value
2022-11-09T00:00:54.090Z,5.55
2022-11-09T00:03:21.637Z,5.58
2022-11-09T00:05:56.118Z,5.66
2022-11-09T00:08:23.465Z,5.57
2022-11-09T00:10:52.014Z,5.59
2022-11-09T00:13:19.441Z,5.61
2022-11-09T00:15:46.924Z,5.54
2022-11-09T00:18:14.353Z,5.57
2022-11-09T00:20:47.710Z,5.59
2022-11-09T00:23:15.628Z,5.58
2022-11-09T00:25:42.995Z,5.56
2022-11-09T00:28:11.787Z,5.59
2022-11-09T00:30:39.127Z,5.64
2022-11-09T00:33:06.873Z,5.80
2022-11-09T00:35:34.043Z,5.75
2022-11-09T00:38:03.848Z,5.76
2022-11-09T00:40:32.548Z,5.78
2022-11-09T00:43:00.096Z,5.77
2022-11-09T00:45:28.726Z,5.74
2022-11-09T00:47:58.024Z,5.76
2022-11-09T00:50:25.219Z,5.77
2022-11-09T00:52:52.544Z,5.78
2022-11-09T00:55:21.308Z,5.85
2022-11-09T00:57:49.728Z,5.83
2022-11-09T01:00:18.232Z,5.78
2022-11-09T01:02:47.265Z,5.82
2022-11-09T01:05:14.429Z,5.77
2022-11-09T01:07:42.410Z,5.78
2022-11-09T01:10:10.246Z,5.80
2022-11-09T01:12:37.628Z,5.84
2022-11-09T01:15:06.288Z,5.87
2022-11-09T01:17:34.916Z,5.93
2022-11-09T01:20:04.390Z,5.90
2022-11-09T01:22:31.648Z,5.92
2022-11-09T01:24:58.967Z,5.93
2022-11-09T01:27:26.292Z,5.92
2022-11-09T01:29:53.529Z,5.94
2022-11-09T01:32:20.957Z,5.95
2022-11-09T01:34:48.261Z,5.89
2022-11-09T01:37:16.996Z,5.97
2022-11-09T01:39:44.282Z,5.97
2022-11-09T01:42:11.421Z,5.95
2022-11-09T01:44:42.695Z,5.92
2022-11-09T01:47:17.689Z,5.98
2022-11-09T01:49:49.741Z,5.93
2022-11-09T01:52:23.786Z,5.92
2022-11-09T01:54:55.260Z,5.92
2022-11-09T01:57:26.358Z,6.01
2022-11-09T01:59:57.429Z,5.94
2022-11-09T02:02:24.896Z,5.97
2022-11-09T02:04:57.142Z,6.02
2022-11-09T02:07:27.430Z,6.05
2022-11-09T02:10:03.234Z,6.08
2022-11-09T02:12:34.663Z,6.02
2022-11-09T02:15:03.987Z,5.89
2022-11-09T02:17:33.107Z,6.01
2022-11-09T02:20:00.950Z,6.00
2022-11-09T02:22:34.671Z,6.04
2022-11-09T02:25:02.824Z,6.03
2022-11-09T02:27:30.609Z,6.04
2022-11-09T02:29:59.679Z,6.04
2022-11-09T02:32:29.859Z,6.04
2022-11-09T02:34:58.752Z,6.05
2022-11-09T02:37:28.562Z,6.03
2022-11-09T02:40:00.349Z,6.05
2022-11-09T02:42:27.807Z,6.08
2022-11-09T02:44:59.433Z,6.06
2022-11-09T02:47:27.295Z,6.08
2022-11-09T02:49:54.898Z,6.09
2022-11-09T02:52:22.254Z,6.09
2022-11-09T02:54:50.833Z,6.06
2022-11-09T02:57:19.707Z,6.05
2022-11-09T02:59:47.737Z,6.08
2022-11-09T03:02:15.061Z,6.11
2022-11-09T03:04:42.473Z,6.08
2022-11-09T03:07:10.621Z,6.07
2022-11-09T03:09:39.463Z,6.06
2022-11-09T03:12:25.966Z,6.06
2022-11-09T03:14:54.968Z,6.10
2022-11-09T03:17:22.567Z,6.11
2022-11-09T03:19:49.962Z,6.12
2022-11-09T03:22:18.051Z,6.14
2022-11-09T03:24:46.746Z,6.12
2022-11-09T03:27:14.390Z,6.15
2022-11-09T03:29:42.162Z,6.13
2022-11-09T03:32:10.774Z,6.18
2022-11-09T03:34:38.360Z,6.17
2022-11-09T03:37:05.787Z,6.20
2022-11-09T03:39:33.640Z,6.24
2022-11-09T03:42:00.925Z,6.27
2022-11-09T03:44:29.051Z,6.22
2022-11-09T03:46:56.373Z,6.26
2022-11-09T03:49:25.245Z,6.29
2022-11-09T03:51:52.512Z,6.32
2022-11-09T03:54:19.698Z,6.32
2022-11-09T03:56:46.886Z,6.32
2022-11-09T03:59:14.321Z,6.34
2022-11-09T04:01:41.642Z,6.34
2022-11-09T04:04:09.039Z,6.31
2022-11-09T04:06:37.721Z,6.37
2022-11-09T04:09:05.427Z,6.41
2022-11-09T04:11:32.870Z,6.40
2022-11-09T04:14:00.251Z,6.41
2022-11-09T04:16:27.511Z,6.44
2022-11-09T04:18:54.812Z,6.42
2022-11-09T04:21:24.073Z,6.46
2022-11-09T04:23:53.113Z,6.47
2022-11-09T04:26:20.465Z,6.48
2022-11-09T04:28:47.637Z,6.48
2022-11-09T04:31:14.855Z,6.48
2022-11-09T04:33:42.139Z,6.53
2022-11-09T04:36:09.793Z,6.51
2022-11-09T04:38:37.380Z,6.57
2022-11-09T04:41:06.420Z,6.59
2022-11-09T04:43:33.647Z,6.57
2022-11-09T04:46:01.644Z,6.57
2022-11-09T04:48:29.672Z,6.55
2022-11-09T04:51:00.869Z,6.62
2022-11-09T04:53:28.615Z,6.57
2022-11-09T04:55:55.949Z,6.60
2022-11-09T04:58:25.160Z,6.62
2022-11-09T05:00:53.351Z,6.67
2022-11-09T05:03:21.384Z,6.67
2022-11-09T05:05:48.977Z,6.67
2022-11-09T05:08:16.278Z,6.68
2022-11-09T05:10:43.729Z,6.71
2022-11-09T05:13:12.969Z,6.58
2022-11-09T05:15:42.640Z,6.68
2022-11-09T05:18:10.707Z,6.77
2022-11-09T05:20:38.074Z,6.77
2022-11-09T05:23:24.316Z,6.75
2022-11-09T05:25:51.774Z,6.80
2022-11-09T05:28:19.052Z,6.81
2022-11-09T05:30:47.777Z,6.84
2022-11-09T05:33:17.387Z,6.85
2022-11-09T05:35:44.887Z,6.83
2022-11-09T05:38:12.228Z,6.86
2022-11-09T05:40:39.431Z,6.83
2022-11-09T05:43:06.764Z,6.86
2022-11-09T05:45:42.618Z,6.88
2022-11-09T05:48:13.222Z,6.97
2022-11-09T05:50:41.494Z,6.93
2022-11-09T05:53:18.178Z,6.98
2022-11-09T05:55:45.678Z,7.00
2022-11-09T05:58:13.044Z,7.04
2022-11-09T06:00:40.505Z,7.06
2022-11-09T06:03:09.881Z,6.96
2022-11-09T06:05:40.065Z,7.08
2022-11-09T06:08:09.758Z,7.06
2022-11-09T06:10:37.332Z,7.13
2022-11-09T06:13:04.868Z,7.09
2022-11-09T06:15:32.230Z,7.12
2022-11-09T06:18:00.553Z,7.16
2022-11-09T06:20:28.432Z,7.13
2022-11-09T06:23:03.024Z,7.09
2022-11-09T06:25:31.966Z,7.14
2022-11-09T06:27:59.684Z,7.11
2022-11-09T06:30:27.024Z,7.15
2022-11-09T06:32:59.136Z,7.21
2022-11-09T06:35:26.385Z,7.25
2022-11-09T06:37:57.605Z,7.20
2022-11-09T06:40:24.957Z,7.22
2022-11-09T06:42:52.451Z,7.27
2022-11-09T06:45:19.787Z,7.25
2022-11-09T06:47:47.086Z,7.27
2022-11-09T06:50:14.550Z,7.27
2022-11-09T06:52:41.840Z,7.25
2022-11-09T06:55:10.915Z,7.25
2022-11-09T06:57:38.275Z,7.23
2022-11-09T07:00:07.458Z,7.28
2022-11-09T07:02:34.837Z,7.28
2022-11-09T07:05:02.056Z,7.27
2022-11-09T07:07:31.431Z,7.30
2022-11-09T07:09:58.928Z,7.31
2022-11-09T07:12:29.049Z,7.35
2022-11-09T07:14:56.528Z,7.38
2022-11-09T07:17:23.767Z,7.39
2022-11-09T07:19:51.027Z,7.37
2022-11-09T07:22:18.317Z,7.35
2022-11-09T07:24:45.523Z,7.35
2022-11-09T07:27:12.807Z,7.33
2022-11-09T07:29:41.460Z,7.34
2022-11-09T07:32:08.643Z,7.29
2022-11-09T07:34:35.970Z,7.35
2022-11-09T07:37:03.442Z,7.34
2022-11-09T07:39:30.699Z,7.45
2022-11-09T07:41:58.397Z,7.34
2022-11-09T07:44:27.717Z,7.37
2022-11-09T07:46:56.381Z,7.36
2022-11-09T07:49:23.900Z,7.33
2022-11-09T07:51:51.168Z,7.30
2022-11-09T07:54:18.501Z,7.31
2022-11-09T07:56:46.136Z,7.33
2022-11-09T07:59:13.342Z,7.37
2022-11-09T08:01:40.658Z,7.36
2022-11-09T08:04:09.813Z,7.37
2022-11-09T08:06:37.292Z,7.37
2022-11-09T08:09:04.717Z,7.39
2022-11-09T08:11:32.135Z,7.39
2022-11-09T08:13:59.615Z,7.50
2022-11-09T08:16:26.954Z,7.49
2022-11-09T08:18:54.339Z,7.42
2022-11-09T08:21:22.990Z,7.45
2022-11-09T08:23:50.829Z,7.44
2022-11-09T08:26:18.164Z,7.43
2022-11-09T08:28:45.514Z,7.48
2022-11-09T08:31:14.258Z,7.42
2022-11-09T08:33:41.982Z,7.44
2022-11-09T08:36:10.999Z,7.45
2022-11-09T08:38:40.072Z,7.45
2022-11-09T08:41:13.038Z,7.50
2022-11-09T08:43:41.096Z,7.52
2022-11-09T08:46:08.657Z,7.58
2022-11-09T08:48:36.007Z,7.56
2022-11-09T08:51:03.452Z,7.51
2022-11-09T08:53:30.813Z,7.53
2022-11-09T08:55:59.796Z,7.57
2022-11-09T08:58:27.337Z,7.56
2022-11-09T09:00:54.557Z,7.57
2022-11-09T09:03:22.035Z,7.63
2022-11-09T09:05:49.259Z,7.65
2022-11-09T09:08:19.149Z,7.66
2022-11-09T09:10:46.825Z,7.62
2022-11-09T09:13:15.753Z,7.67
2022-11-09T09:15:43.032Z,7.65
2022-11-09T09:18:10.446Z,7.63
2022-11-09T09:20:37.842Z,7.64
2022-11-09T09:23:05.468Z,7.64
2022-11-09T09:25:32.815Z,7.70
2022-11-09T09:28:00.150Z,7.75
2022-11-09T09:30:29.213Z,7.68
2022-11-09T09:32:59.180Z,7.68
2022-11-09T09:35:27.320Z,7.72
2022-11-09T09:37:55.210Z,7.69
2022-11-09T09:40:26.497Z,7.56
2022-11-09T09:42:55.366Z,7.57
2022-11-09T09:45:28.244Z,7.69
2022-11-09T09:48:00.729Z,7.64
2022-11-09T09:50:29.500Z,7.71
2022-11-09T09:55:53.405Z,7.79
2022-11-09T09:58:25.957Z,7.68
2022-11-09T10:00:57.595Z,7.56
2022-11-09T10:03:26.688Z,7.71
2022-11-09T10:06:02.232Z,7.75
2022-11-09T10:08:43.062Z,7.69
2022-11-09T10:11:21.745Z,7.76
2022-11-09T10:14:04.384Z,7.76
2022-11-09T10:16:39.322Z,7.70
2022-11-09T10:19:34.502Z,7.72
2022-11-09T10:22:11.919Z,7.79
2022-11-09T10:25:18.462Z,7.76
2022-11-09T10:27:46.913Z,7.71
2022-11-09T10:30:18.318Z,7.72
2022-11-09T10:32:50.281Z,7.77
2022-11-09T10:35:20.842Z,7.77
2022-11-09T10:37:50.250Z,7.78
2022-11-09T10:40:22.954Z,7.66
2022-11-09T10:43:11.692Z,7.68
2022-11-09T10:46:05.085Z,7.80
2022-11-09T10:48:53.171Z,7.76
2022-11-09T10:51:42.453Z,7.74
2022-11-09T10:54:31.384Z,7.77
2022-11-09T10:57:20.008Z,7.71
2022-11-09T11:00:14.136Z,7.79
2022-11-09T11:03:11.907Z,7.80
2022-11-09T11:05:59.296Z,7.84
2022-11-09T11:08:49.328Z,7.71
2022-11-09T11:11:37.826Z,7.90
2022-11-09T11:14:30.613Z,7.87
2022-11-09T11:17:22.475Z,7.98
2022-11-09T11:20:27.887Z,7.97
2022-11-09T11:23:15.901Z,7.90
2022-11-09T11:26:20.882Z,7.90
2022-11-09T11:29:19.959Z,7.82
2022-11-09T11:32:12.048Z,7.94
2022-11-09T11:35:01.011Z,7.94
2022-11-09T11:38:00.841Z,7.97
2022-11-09T11:41:10.129Z,7.95
2022-11-09T11:44:03.436Z,7.98
2022-11-09T11:47:00.943Z,7.89
2022-11-09T11:50:03.269Z,8.00
2022-11-09T11:53:03.122Z,7.99
2022-11-09T11:56:13.373Z,8.03
2022-11-09T11:59:38.477Z,8.00
2022-11-09T12:03:01.890Z,8.01
2022-11-09T12:06:06.349Z,8.00
2022-11-09T12:09:06.257Z,8.01
2022-11-09T12:12:07.522Z,7.86
2022-11-09T12:15:10.875Z,8.00
2022-11-09T12:18:08.709Z,7.86
2022-11-09T12:21:05.448Z,7.99
2022-11-09T12:24:22.212Z,8.03
2022-11-09T12:27:36.948Z,8.09
2022-11-09T12:30:26.205Z,8.05
2022-11-09T12:33:17.055Z,7.99
2022-11-09T12:36:09.599Z,7.89
2022-11-09T12:39:01.750Z,8.00
2022-11-09T12:41:49.921Z,7.90
2022-11-09T12:44:42.331Z,8.04
2022-11-09T12:47:31.946Z,8.10
2022-11-09T12:50:19.895Z,8.00
2022-11-09T12:53:06.724Z,8.13
2022-11-09T12:55:56.296Z,8.04
2022-11-09T12:58:42.291Z,8.06
2022-11-09T13:01:54.716Z,8.07
2022-11-09T13:04:55.170Z,8.06
2022-11-09T13:07:49.894Z,8.04
2022-11-09T13:10:37.774Z,8.04
2022-11-09T13:13:25.498Z,7.95
2022-11-09T13:16:31.294Z,8.13
2022-11-09T13:19:50.604Z,8.16
2022-11-09T13:22:59.342Z,8.17
2022-11-09T13:25:51.146Z,8.10
2022-11-09T13:28:45.258Z,8.06
2022-11-09T13:32:00.675Z,8.11
2022-11-09T13:34:48.095Z,8.10
2022-11-09T13:37:47.713Z,8.16
2022-11-09T13:40:41.872Z,8.11
2022-11-09T13:43:30.870Z,8.16
2022-11-09T13:46:25.973Z,8.15
2022-11-09T13:49:41.200Z,8.14
2022-11-09T13:52:49.205Z,8.15
2022-11-09T13:55:39.588Z,8.19
2022-11-09T13:58:30.715Z,8.27
2022-11-09T14:01:27.802Z,8.27
2022-11-09T14:04:25.583Z,8.19
2022-11-09T14:07:19.132Z,7.96
2022-11-09T14:10:19.161Z,8.25
2022-11-09T14:13:20.550Z,8.20
2022-11-09T14:16:13.895Z,8.22
2022-11-09T14:19:10.343Z,8.24
2022-11-09T14:21:56.912Z,8.29
2022-11-09T14:24:43.726Z,8.15
2022-11-09T14:27:32.063Z,8.27
2022-11-09T14:30:21.774Z,8.34
2022-11-09T14:33:23.530Z,8.26
2022-11-09T14:36:13.126Z,8.31
2022-11-09T14:39:01.440Z,8.32
2022-11-09T14:41:50.557Z,8.35
2022-11-09T14:44:43.046Z,8.30
2022-11-09T14:47:34.578Z,8.38
2022-11-09T14:50:24.361Z,8.33
2022-11-09T14:53:15.270Z,8.43
2022-11-09T14:56:04.451Z,8.39
2022-11-09T14:58:52.218Z,8.41
2022-11-09T15:01:39.772Z,8.41
2022-11-09T15:04:27.286Z,8.41
2022-11-09T15:07:19.728Z,8.44
2022-11-09T15:10:08.321Z,8.41
2022-11-09T15:12:57.980Z,8.43
2022-11-09T15:15:51.593Z,8.40
2022-11-09T15:18:46.119Z,8.43
2022-11-09T15:21:35.155Z,8.39
2022-11-09T15:24:22.689Z,8.56
2022-11-09T15:27:28.564Z,8.53
2022-11-09T15:30:32.199Z,8.60
2022-11-09T15:33:25.733Z,8.60
2022-11-09T15:36:25.307Z,8.58
2022-11-09T15:39:16.660Z,8.59
2022-11-09T15:42:02.926Z,8.59
2022-11-09T15:44:52.482Z,8.59
2022-11-09T15:47:38.740Z,8.54
2022-11-09T15:50:26.701Z,8.60
2022-11-09T15:53:14.827Z,8.63
2022-11-09T15:56:01.273Z,8.63
2022-11-09T15:58:49.377Z,8.60
2022-11-09T16:01:35.861Z,8.58
2022-11-09T16:04:22.147Z,8.60
2022-11-09T16:07:10.076Z,8.57
2022-11-09T16:09:57.542Z,8.61
2022-11-09T16:12:46.364Z,8.64
2022-11-09T16:15:33.078Z,8.66
2022-11-09T16:18:25.627Z,8.66
2022-11-09T16:21:15.134Z,8.66
2022-11-09T16:24:01.030Z,8.70
2022-11-09T16:26:48.251Z,8.74
2022-11-09T16:29:34.240Z,8.66
2022-11-09T16:32:20.134Z,8.66
2022-11-09T16:35:26.276Z,8.69
2022-11-09T16:38:13.216Z,8.76
2022-11-09T16:41:00.994Z,8.72
2022-11-09T16:43:51.121Z,8.78
2022-11-09T16:46:37.249Z,8.84
2022-11-09T16:49:23.016Z,8.80
2022-11-09T16:52:09.512Z,8.81
2022-11-09T16:54:55.669Z,8.78
2022-11-09T16:57:41.626Z,8.90
2022-11-09T17:00:42.747Z,8.89
2022-11-09T17:03:35.364Z,8.89
2022-11-09T17:06:21.494Z,8.93
2022-11-09T17:09:07.640Z,8.97
2022-11-09T17:11:53.564Z,8.91
2022-11-09T17:14:39.338Z,8.98
2022-11-09T17:17:26.594Z,8.97
2022-11-09T17:20:12.648Z,8.93
2022-11-09T17:22:58.320Z,9.01
2022-11-09T17:25:54.817Z,9.03
2022-11-09T17:28:43.156Z,9.06
2022-11-09T17:31:30.016Z,9.05
2022-11-09T17:34:17.602Z,8.98
2022-11-09T17:37:05.471Z,9.02
2022-11-09T17:39:51.748Z,8.99
2022-11-09T17:42:37.769Z,8.96
2022-11-09T17:45:23.885Z,8.96
2022-11-09T17:48:09.672Z,8.96
2022-11-09T17:50:57.506Z,8.95
2022-11-09T17:53:43.632Z,8.95
2022-11-09T17:56:31.271Z,8.95
2022-11-09T17:59:17.495Z,8.99
2022-11-09T18:02:03.498Z,8.97
2022-11-09T18:04:49.381Z,9.02
2022-11-09T18:07:36.309Z,8.98
2022-11-09T18:10:22.189Z,9.00
2022-11-09T18:13:08.759Z,9.05
2022-11-09T18:15:54.639Z,9.01
2022-11-09T18:18:40.040Z,9.06
2022-11-09T18:21:27.967Z,8.99
2022-11-09T18:24:15.445Z,8.99
2022-11-09T18:27:01.631Z,8.96
2022-11-09T18:29:47.274Z,9.01
2022-11-09T18:32:32.667Z,9.02
2022-11-09T18:35:18.733Z,9.01
2022-11-09T18:38:04.509Z,9.00
2022-11-09T18:41:01.701Z,8.92
2022-11-09T18:43:48.253Z,8.99
2022-11-09T18:46:34.258Z,8.96
2022-11-09T18:49:20.172Z,8.99
2022-11-09T18:52:06.212Z,8.98
2022-11-09T18:54:52.002Z,8.92
2022-11-09T18:57:39.504Z,8.93
2022-11-09T19:00:25.124Z,8.90
2022-11-09T19:03:15.175Z,8.88
2022-11-09T19:06:04.767Z,8.85
2022-11-09T19:09:09.508Z,8.96
2022-11-09T19:11:57.522Z,8.99
2022-11-09T19:14:44.977Z,8.98
2022-11-09T19:17:32.567Z,8.92
2022-11-09T19:20:19.007Z,8.95
2022-11-09T19:23:04.564Z,8.94
2022-11-09T19:25:50.512Z,8.96
2022-11-09T19:28:36.541Z,8.96
2022-11-09T19:31:24.808Z,8.99
2022-11-09T19:34:11.510Z,8.94
2022-11-09T19:36:59.030Z,8.90
2022-11-09T19:39:47.742Z,8.85
2022-11-09T19:42:34.511Z,8.88
2022-11-09T19:45:20.226Z,8.87
2022-11-09T19:48:07.626Z,8.85
2022-11-09T19:50:53.501Z,8.82
2022-11-09T19:53:42.817Z,8.88
2022-11-09T19:56:31.291Z,8.74
2022-11-09T19:59:17.698Z,8.87
2022-11-09T20:02:04.126Z,8.77
2022-11-09T20:04:52.488Z,8.82
2022-11-09T20:07:38.936Z,8.73
2022-11-09T20:10:25.204Z,8.81
2022-11-09T20:13:11.194Z,8.88
2022-11-09T20:16:01.516Z,8.77
2022-11-09T20:18:48.006Z,8.76
2022-11-09T20:21:35.592Z,8.75
2022-11-09T20:24:21.220Z,8.73
2022-11-09T20:27:08.295Z,8.70
2022-11-09T20:29:54.141Z,8.71
2022-11-09T20:32:40.021Z,8.74
2022-11-09T20:35:26.355Z,8.68
2022-11-09T20:38:13.688Z,8.64
2022-11-09T20:41:01.449Z,8.64
2022-11-09T20:43:47.291Z,8.66
2022-11-09T20:46:36.598Z,8.64
2022-11-09T20:49:23.470Z,8.66
2022-11-09T20:52:09.384Z,8.70
2022-11-09T20:54:56.173Z,8.72
2022-11-09T20:57:42.476Z,8.69
2022-11-09T21:00:28.869Z,8.61
2022-11-09T21:03:14.703Z,8.60
2022-11-09T21:06:03.285Z,8.61
2022-11-09T21:08:50.658Z,8.61
2022-11-09T21:11:57.990Z,8.68
2022-11-09T21:14:44.220Z,8.60
2022-11-09T21:17:31.992Z,8.63
2022-11-09T21:20:18.331Z,8.72
2022-11-09T21:23:13.583Z,8.66
2022-11-09T21:26:19.086Z,8.64
2022-11-09T21:29:28.068Z,8.64
2022-11-09T21:32:14.235Z,8.66
2022-11-09T21:35:00.002Z,8.65
2022-11-09T21:37:46.170Z,8.65
2022-11-09T21:40:32.083Z,8.66
2022-11-09T21:43:18.068Z,8.63
2022-11-09T21:46:05.479Z,8.63
2022-11-09T21:48:51.379Z,8.65
2022-11-09T21:51:38.575Z,8.73
2022-11-09T21:54:25.538Z,8.63
2022-11-09T21:57:11.544Z,8.62
2022-11-09T21:59:57.085Z,8.55
2022-11-09T22:02:44.336Z,8.60
2022-11-09T22:05:32.041Z,8.60
2022-11-09T22:08:17.902Z,8.57
2022-11-09T22:11:05.357Z,8.56
2022-11-09T22:14:09.584Z,8.65
2022-11-09T22:16:55.712Z,8.61
2022-11-09T22:20:01.598Z,8.66
2022-11-09T22:22:47.605Z,8.63
2022-11-09T22:25:33.401Z,8.59
2022-11-09T22:28:18.786Z,8.63
2022-11-09T22:31:05.667Z,8.59
2022-11-09T22:33:52.080Z,8.53
2022-11-09T22:36:39.422Z,8.59
2022-11-09T22:39:25.105Z,8.58
2022-11-09T22:42:11.275Z,8.60
2022-11-09T22:44:57.463Z,8.63
2022-11-09T22:47:42.969Z,8.53
2022-11-09T22:50:28.791Z,8.54
2022-11-09T22:53:16.008Z,8.53
2022-11-09T22:56:03.769Z,8.60
2022-11-09T22:58:52.387Z,8.52
2022-11-09T23:01:38.239Z,8.51
2022-11-09T23:04:24.054Z,8.44
2022-11-09T23:07:09.556Z,8.49
2022-11-09T23:09:57.036Z,8.57
2022-11-09T23:12:42.569Z,8.55
2022-11-09T23:15:28.813Z,8.57
2022-11-09T23:18:33.066Z,8.52
2022-11-09T23:21:19.978Z,8.51
2022-11-09T23:24:07.534Z,8.51
2022-11-09T23:26:54.705Z,8.49
2022-11-09T23:29:40.315Z,8.52
2022-11-09T23:32:26.282Z,8.58
2022-11-09T23:35:12.172Z,8.45
2022-11-09T23:37:58.218Z,8.57
2022-11-09T23:40:43.565Z,8.46
2022-11-09T23:43:30.480Z,8.52
2022-11-09T23:46:17.314Z,8.54
2022-11-09T23:49:03.079Z,8.51
2022-11-09T23:51:48.528Z,8.55
2022-11-09T23:54:34.849Z,8.54
2022-11-09T23:57:20.300Z,8.52
